Airports Greece Zakynthos International Airport Dionysios Solomos

Zakynthos International Airport Dionysios Solomos (LGZA / ZTH)

Facts about Zakynthos International Airport Dionysios Solomos

Name Zakynthos International Airport Dionysios Solomos
City Zakynthos
Country Greece
ICAO code LGZA
IATA code ZTH
Elevation 4.5720 meters (15 feet)

Weather

METAR

Metar data retrieved Saturday, 20 July 2024 at 00:55 UTC (13 minutes ago)

LGZA 192350Z 00000KT 9999 FEW080 30/22 Q1008

Live traffic

Navigraph Charts (account required)